createdAt,value
2019-06-26T00:01:04.808Z,52.23
2019-06-26T00:04:09.121Z,48.90
2019-06-26T00:07:13.443Z,36.63
2019-06-26T00:10:17.968Z,36.80
2019-06-26T00:13:26.703Z,29.80
2019-06-26T00:16:28.375Z,25.80
2019-06-26T00:19:32.666Z,26.43
2019-06-26T00:22:36.979Z,27.57
2019-06-26T00:25:41.269Z,26.93
2019-06-26T00:28:45.589Z,27.67
2019-06-26T00:31:49.878Z,27.93
2019-06-26T00:34:54.211Z,24.53
2019-06-26T00:37:58.499Z,24.33
2019-06-26T00:41:02.821Z,22.07
2019-06-26T00:44:08.569Z,22.47
2019-06-26T00:47:12.991Z,25.37
2019-06-26T00:50:17.699Z,24.33
2019-06-26T00:53:21.997Z,24.23
2019-06-26T00:56:26.294Z,27.17
2019-06-26T00:59:30.609Z,26.83
2019-06-26T01:02:34.907Z,26.60
2019-06-26T01:05:39.506Z,24.43
2019-06-26T01:08:43.781Z,25.63
2019-06-26T01:11:48.101Z,25.87
2019-06-26T01:14:52.405Z,23.53
2019-06-26T01:17:56.708Z,26.47
2019-06-26T01:21:02.036Z,29.27
2019-06-26T01:24:06.565Z,33.00
2019-06-26T01:27:10.875Z,30.93
2019-06-26T01:30:15.557Z,29.03
2019-06-26T01:33:19.876Z,29.03
2019-06-26T01:36:24.304Z,30.43
2019-06-26T01:39:30.471Z,31.73
2019-06-26T01:42:34.765Z,32.27
2019-06-26T01:45:39.115Z,31.57
2019-06-26T01:48:43.392Z,28.67
2019-06-26T01:51:47.697Z,32.23
2019-06-26T01:54:51.990Z,29.30
2019-06-26T01:57:56.377Z,27.97
2019-06-26T02:01:00.707Z,27.10
2019-06-26T02:04:05.134Z,29.17
2019-06-26T02:07:09.410Z,27.83
2019-06-26T02:10:14.391Z,28.80
2019-06-26T02:13:18.734Z,32.03
2019-06-26T02:16:23.039Z,30.67
2019-06-26T02:19:27.360Z,31.40
2019-06-26T02:22:31.864Z,29.00
2019-06-26T02:25:36.165Z,32.63
2019-06-26T02:28:40.436Z,32.00
2019-06-26T02:31:45.930Z,32.03
2019-06-26T02:34:50.216Z,28.93
2019-06-26T02:37:54.546Z,31.43
2019-06-26T02:40:58.848Z,31.20
2019-06-26T02:44:03.153Z,31.67
2019-06-26T02:47:19.562Z,32.47
2019-06-26T02:50:14.926Z,33.80
2019-06-26T02:53:19.225Z,30.37
2019-06-26T02:56:23.548Z,28.37
2019-06-26T02:59:27.841Z,31.33
2019-06-26T03:02:32.164Z,31.10
2019-06-26T03:05:36.475Z,32.13
2019-06-26T03:08:40.843Z,32.30
2019-06-26T03:11:45.255Z,33.10
2019-06-26T03:14:49.565Z,30.63
2019-06-26T03:17:55.705Z,28.63
2019-06-26T03:20:59.894Z,26.73
2019-06-26T03:24:04.179Z,26.20
2019-06-26T03:27:09.280Z,24.43
2019-06-26T03:30:14.120Z,26.27
2019-06-26T03:33:18.451Z,24.97
2019-06-26T03:36:22.722Z,25.90
2019-06-26T03:39:27.001Z,23.00
2019-06-26T03:42:31.328Z,21.13
2019-06-26T03:45:35.776Z,22.53
2019-06-26T03:48:40.081Z,20.87
2019-06-26T03:51:44.371Z,22.60
2019-06-26T03:54:48.664Z,21.50
2019-06-26T03:57:52.957Z,20.03
2019-06-26T04:00:57.227Z,21.17
2019-06-26T04:04:01.520Z,21.87
2019-06-26T04:07:05.834Z,19.93
2019-06-26T04:10:10.219Z,19.33
2019-06-26T04:13:14.547Z,20.57
2019-06-26T04:16:18.828Z,19.23
2019-06-26T04:19:23.115Z,19.40
2019-06-26T04:22:27.448Z,18.93
2019-06-26T04:25:31.739Z,19.83
2019-06-26T04:28:36.041Z,18.97
2019-06-26T04:31:40.323Z,17.63
2019-06-26T04:34:44.615Z,20.00
2019-06-26T04:37:48.915Z,21.00
2019-06-26T04:40:53.218Z,19.90
2019-06-26T04:43:57.566Z,20.37
2019-06-26T04:47:01.852Z,21.37
2019-06-26T04:50:07.628Z,21.60
2019-06-26T04:53:11.944Z,19.47
2019-06-26T04:56:16.301Z,21.87
2019-06-26T05:03:02.710Z,20.07
2019-06-26T05:06:06.977Z,17.30
2019-06-26T05:09:11.286Z,17.23
2019-06-26T05:12:15.573Z,16.67
2019-06-26T05:15:20.383Z,20.90
2019-06-26T05:18:24.668Z,18.40
2019-06-26T05:21:29.052Z,18.03
2019-06-26T05:24:33.303Z,17.33
2019-06-26T05:27:37.595Z,18.00
2019-06-26T05:30:41.826Z,17.60
2019-06-26T05:33:46.089Z,19.20
2019-06-26T05:36:50.323Z,17.10
2019-06-26T05:39:54.916Z,17.70
2019-06-26T05:42:59.472Z,17.10
2019-06-26T05:46:03.797Z,19.00
2019-06-26T05:49:08.006Z,18.90
2019-06-26T05:52:12.266Z,18.50
2019-06-26T05:55:16.690Z,17.10
2019-06-26T05:58:21.135Z,17.70
2019-06-26T06:01:25.694Z,17.47
2019-06-26T06:04:30.119Z,17.73
2019-06-26T06:07:34.354Z,17.13
2019-06-26T06:10:38.647Z,18.33
2019-06-26T06:13:42.907Z,18.47
2019-06-26T06:16:48.087Z,18.90
2019-06-26T06:19:52.454Z,17.53
2019-06-26T06:22:56.705Z,21.37
2019-06-26T06:26:00.925Z,17.57
2019-06-26T06:29:05.185Z,16.23
2019-06-26T06:32:09.516Z,18.97
2019-06-26T06:35:14.171Z,18.50
2019-06-26T06:38:18.423Z,19.00
2019-06-26T06:41:22.612Z,18.67
2019-06-26T06:44:26.865Z,16.90
2019-06-26T06:47:31.149Z,16.87
2019-06-26T06:50:35.385Z,18.00
2019-06-26T06:53:39.619Z,16.63
2019-06-26T06:56:43.844Z,18.33
2019-06-26T06:59:48.304Z,16.73
2019-06-26T07:02:52.587Z,17.07
2019-06-26T07:05:56.848Z,15.53
2019-06-26T07:09:01.105Z,17.10
2019-06-26T07:12:05.338Z,15.87
2019-06-26T07:15:10.457Z,14.73
2019-06-26T07:18:14.746Z,15.67
2019-06-26T07:21:19.002Z,15.07
2019-06-26T07:24:23.253Z,13.50
2019-06-26T07:27:27.531Z,16.87
2019-06-26T07:30:31.766Z,13.63
2019-06-26T07:33:36.031Z,15.07
2019-06-26T07:36:40.304Z,14.30
2019-06-26T07:39:44.604Z,13.43
2019-06-26T07:42:48.846Z,13.23
2019-06-26T07:45:53.115Z,11.50
2019-06-26T07:48:57.765Z,13.90
2019-06-26T07:52:02.072Z,12.90
2019-06-26T07:55:06.851Z,14.07
2019-06-26T07:58:11.084Z,14.57
2019-06-26T08:01:15.306Z,12.53
2019-06-26T08:04:19.564Z,13.30
2019-06-26T08:07:23.778Z,12.10
2019-06-26T08:10:28.003Z,9.83
2019-06-26T08:13:32.322Z,11.80
2019-06-26T08:16:36.644Z,11.37
2019-06-26T08:19:40.985Z,9.17
2019-06-26T08:22:45.266Z,9.13
2019-06-26T08:25:49.537Z,12.60
2019-06-26T08:28:53.871Z,8.43
2019-06-26T08:31:58.149Z,11.50
2019-06-26T08:35:02.461Z,8.43
2019-06-26T08:38:12.446Z,8.03
2019-06-26T08:41:13.863Z,10.27
2019-06-26T08:44:18.133Z,9.43
2019-06-26T08:47:22.586Z,6.73
2019-06-26T08:50:26.954Z,11.13
2019-06-26T08:53:32.786Z,10.47
2019-06-26T08:56:37.064Z,10.33
2019-06-26T08:59:41.359Z,10.00
2019-06-26T09:02:45.623Z,7.60
2019-06-26T09:05:49.934Z,9.77
2019-06-26T09:08:54.231Z,8.33
2019-06-26T09:12:00.289Z,11.37
2019-06-26T09:15:04.911Z,12.07
2019-06-26T09:18:09.216Z,9.13
2019-06-26T09:21:13.505Z,8.23
2019-06-26T09:24:17.834Z,6.90
2019-06-26T09:27:22.111Z,7.80
2019-06-26T09:30:26.625Z,10.37
2019-06-26T09:33:32.377Z,6.47
2019-06-26T09:36:36.959Z,8.03
2019-06-26T09:39:41.234Z,10.10
2019-06-26T09:42:45.496Z,8.73
2019-06-26T09:45:51.577Z,15.73
2019-06-26T09:48:55.893Z,9.93
2019-06-26T09:52:00.176Z,9.90
2019-06-26T09:55:05.920Z,8.70
2019-06-26T09:58:13.198Z,8.67
2019-06-26T15:41:41.057Z,5.13
2019-06-26T15:44:45.411Z,8.50
2019-06-26T15:48:08.705Z,6.77
2019-06-26T15:51:12.998Z,7.43
2019-06-26T15:54:17.627Z,8.83
2019-06-26T15:57:21.915Z,13.87
2019-06-26T16:00:26.204Z,12.23
2019-06-26T16:03:31.511Z,11.47
2019-06-26T16:06:35.800Z,9.07
2019-06-26T16:09:40.285Z,10.80
2019-06-26T16:12:44.586Z,12.70
2019-06-26T16:15:48.893Z,7.13
2019-06-26T16:18:58.864Z,9.80
2019-06-26T16:22:03.178Z,7.27
2019-06-26T16:25:08.000Z,8.90
2019-06-26T16:28:12.279Z,5.70
2019-06-26T16:31:16.569Z,7.73
2019-06-26T16:34:20.882Z,6.73
2019-06-26T16:37:25.161Z,11.80
2019-06-26T16:40:29.462Z,7.50
2019-06-26T16:43:33.767Z,16.37
2019-06-26T16:46:38.418Z,10.07
2019-06-26T16:49:42.856Z,10.90
2019-06-26T16:52:49.614Z,9.47
2019-06-26T16:55:54.987Z,11.83
2019-06-26T16:58:59.284Z,10.60
2019-06-26T17:02:06.910Z,10.30
2019-06-26T17:05:10.145Z,26.47
2019-06-26T17:08:14.536Z,12.57
2019-06-26T17:11:18.845Z,12.17
2019-06-26T17:14:23.226Z,16.47
2019-06-26T17:17:27.611Z,14.00
2019-06-26T17:20:31.919Z,10.30
2019-06-26T17:23:36.235Z,10.17
2019-06-26T17:26:40.525Z,9.40
2019-06-26T17:29:44.857Z,8.93
2019-06-26T17:32:49.146Z,9.13
2019-06-26T17:35:53.590Z,10.07
2019-06-26T17:38:57.886Z,10.80
2019-06-26T17:42:02.211Z,6.83
2019-06-26T17:45:06.836Z,12.90
2019-06-26T17:48:11.169Z,11.90
2019-06-26T17:51:15.464Z,10.63
2019-06-26T17:54:19.766Z,10.90
2019-06-26T17:57:24.063Z,9.13
2019-06-26T18:00:31.901Z,10.17
2019-06-26T18:03:36.185Z,10.17
2019-06-26T18:06:40.504Z,11.73
2019-06-26T18:09:44.826Z,11.23
2019-06-26T18:12:49.156Z,11.63
2019-06-26T18:15:53.458Z,14.77
2019-06-26T18:18:57.760Z,8.53
2019-06-26T18:22:02.070Z,8.10
2019-06-26T18:25:06.889Z,11.23
2019-06-26T18:28:11.217Z,11.93
2019-06-26T18:31:15.547Z,12.53
2019-06-26T18:34:19.851Z,11.93
2019-06-26T18:37:24.188Z,7.87
2019-06-26T18:40:28.487Z,13.37
2019-06-26T18:43:32.951Z,11.33
2019-06-26T18:46:37.289Z,11.20
2019-06-26T18:49:41.690Z,8.97
2019-06-26T18:52:46.055Z,10.63
2019-06-26T18:55:50.402Z,8.80
2019-06-26T18:58:54.963Z,9.90
2019-06-26T19:02:00.381Z,11.17
2019-06-26T19:05:05.241Z,12.00
2019-06-26T19:08:09.569Z,11.13
2019-06-26T19:11:13.902Z,11.07
2019-06-26T19:14:18.277Z,13.50
2019-06-26T19:17:22.634Z,16.33
2019-06-26T19:20:26.972Z,12.00
2019-06-26T19:23:31.711Z,9.00
2019-06-26T19:26:36.071Z,9.47
2019-06-26T19:29:40.434Z,14.23
2019-06-26T19:32:44.764Z,8.73
2019-06-26T19:35:49.087Z,11.03
2019-06-26T19:38:53.371Z,7.73
2019-06-26T19:41:57.654Z,10.50
2019-06-26T19:45:02.045Z,15.13
2019-06-26T19:48:06.444Z,11.30
2019-06-26T19:51:10.868Z,11.37
2019-06-26T19:54:26.730Z,12.17
2019-06-26T19:57:21.281Z,15.07
2019-06-26T20:00:25.571Z,9.47
2019-06-26T20:03:29.874Z,12.63
2019-06-26T20:06:34.229Z,11.93
2019-06-26T20:09:38.672Z,7.07
2019-06-26T20:12:42.978Z,10.03
2019-06-26T20:15:47.275Z,9.00
2019-06-26T20:18:51.693Z,9.73
2019-06-26T20:21:56.080Z,6.33
2019-06-26T20:25:00.501Z,10.10
2019-06-26T20:28:04.795Z,13.23
2019-06-26T20:31:09.111Z,10.43
2019-06-26T20:34:13.429Z,7.70
2019-06-26T20:37:17.780Z,9.83
2019-06-26T20:40:22.316Z,16.83
2019-06-26T20:43:26.653Z,12.63
2019-06-26T20:46:30.972Z,12.97
2019-06-26T20:49:35.255Z,10.03
2019-06-26T20:52:39.538Z,11.00
2019-06-26T20:55:43.826Z,10.80
2019-06-26T20:58:48.182Z,10.17
2019-06-26T21:01:52.507Z,7.57
2019-06-26T21:04:56.827Z,10.73
2019-06-26T21:08:01.145Z,10.77
2019-06-26T21:11:06.409Z,12.73
2019-06-26T21:14:10.809Z,12.40
2019-06-26T21:17:15.165Z,10.83
2019-06-26T21:20:20.446Z,15.80
2019-06-26T21:23:24.783Z,13.57
2019-06-26T21:26:29.111Z,11.53
2019-06-26T21:29:33.492Z,17.17
2019-06-26T21:32:37.817Z,8.53
2019-06-26T21:35:42.110Z,12.90
2019-06-26T21:38:46.500Z,15.17
2019-06-26T21:41:50.822Z,15.30
2019-06-26T21:44:55.102Z,13.07
2019-06-26T21:47:59.451Z,14.50
2019-06-26T21:51:03.742Z,18.57
2019-06-26T21:54:08.030Z,17.57
2019-06-26T21:57:12.463Z,16.53
2019-06-26T22:00:17.297Z,15.17
2019-06-26T22:03:21.689Z,11.67
2019-06-26T22:06:26.482Z,14.73
2019-06-26T22:09:31.026Z,8.17
2019-06-26T22:12:35.545Z,11.70
2019-06-26T22:15:39.886Z,12.17
2019-06-26T22:18:44.309Z,13.37
2019-06-26T22:21:48.658Z,16.03
2019-06-26T22:24:53.025Z,14.33
2019-06-26T22:27:57.382Z,14.70
2019-06-26T22:31:01.672Z,15.10
2019-06-26T22:34:05.982Z,14.47
2019-06-26T22:37:10.251Z,14.97
2019-06-26T22:40:14.549Z,13.00
2019-06-26T22:43:18.815Z,12.37
2019-06-26T22:46:23.116Z,12.50
2019-06-26T22:49:27.392Z,12.17
2019-06-26T22:52:31.711Z,15.77
2019-06-26T22:55:35.975Z,19.70
2019-06-26T22:58:40.269Z,12.00
2019-06-26T23:01:44.543Z,11.37
2019-06-26T23:04:48.837Z,14.83
2019-06-26T23:07:53.107Z,13.30
2019-06-26T23:10:57.411Z,12.60
2019-06-26T23:14:01.719Z,11.33
2019-06-26T23:17:06.120Z,13.93
2019-06-26T23:20:10.753Z,10.97
2019-06-26T23:23:15.021Z,13.93
2019-06-26T23:26:23.994Z,13.87
2019-06-26T23:29:25.321Z,12.97
2019-06-26T23:32:29.747Z,12.17
2019-06-26T23:35:34.074Z,12.50
2019-06-26T23:38:38.345Z,12.23
2019-06-26T23:41:42.617Z,17.80
2019-06-26T23:44:46.912Z,13.20
2019-06-26T23:47:52.319Z,16.00
2019-06-26T23:50:56.585Z,13.57
2019-06-26T23:54:00.859Z,13.40
2019-06-26T23:57:05.140Z,11.90
